Time;durP1;ratioP1;P1;durP2;ratioP2;P2;SDS_P1;SDS_P2;PMS_P1;PMS_P2;Temp;Humidity;BMP_temperature;BMP_pressure;BME280_temperature;BME280_humidity;BME280_pressure;Samples;Min_cycle;Max_cycle;Signal;HPM_P1;HPM_P2
2022/01/20 00:00:14;;;;;;;15.82;2.50;;;3.90;99.90;;;;;;5079720;28;20117;-61
2022/01/20 00:02:41;;;;;;;14.32;2.33;;;4.00;99.90;;;;;;5079341;28;20067;-61
2022/01/20 00:26:56;;;;;;;17.83;2.13;;;4.00;99.90;;;;;;5078560;28;20052;-61
2022/01/20 00:29:30;;;;;;;13.20;2.38;;;4.00;99.90;;;;;;5061684;28;20043;-62
2022/01/20 00:32:11;;;;;;;17.17;2.38;;;4.00;99.90;;;;;;5078495;28;20092;-61
2022/01/20 00:37:24;;;;;;;19.27;2.70;;;4.20;99.90;;;;;;5078907;28;20083;-61
2022/01/20 00:39:50;;;;;;;19.35;2.35;;;4.10;99.90;;;;;;5078539;28;20059;-61
2022/01/20 00:42:16;;;;;;;13.55;2.30;;;4.00;99.90;;;;;;5079077;28;20037;-61
2022/01/20 00:44:44;;;;;;;13.93;2.90;;;4.00;99.90;;;;;;5078607;28;20080;-61
2022/01/20 00:47:10;;;;;;;14.82;2.40;;;4.10;99.90;;;;;;5060443;28;20048;-62
2022/01/20 00:49:36;;;;;;;11.38;2.58;;;4.20;99.90;;;;;;5078469;28;20711;-61
2022/01/20 00:52:03;;;;;;;16.77;3.05;;;4.20;99.90;;;;;;5060439;28;20649;-61
2022/01/20 00:54:28;;;;;;;16.00;2.95;;;4.20;99.90;;;;;;5043984;28;20037;-61
2022/01/20 00:56:54;;;;;;;12.20;1.98;;;4.20;99.90;;;;;;5060538;28;20045;-61
2022/01/20 00:59:20;;;;;;;14.15;2.17;;;4.30;99.90;;;;;;5079207;28;20049;-61
2022/01/20 01:01:46;;;;;;;14.93;2.30;;;4.50;99.90;;;;;;5043820;28;20059;-61
2022/01/20 01:04:12;;;;;;;11.32;1.75;;;4.60;99.90;;;;;;5060634;28;20079;-62
2022/01/20 01:09:22;;;;;;;10.75;2.10;;;4.50;99.90;;;;;;5078383;28;20067;-63
2022/01/20 01:11:50;;;;;;;11.15;1.65;;;4.30;99.90;;;;;;5083907;28;20040;-62
2022/01/20 01:14:18;;;;;;;19.73;2.67;;;4.20;99.90;;;;;;5098546;28;20080;-62
2022/01/20 01:22:31;;;;;;;6.20;1.50;;;3.90;99.90;;;;;;5098305;28;20132;-62
2022/01/20 01:24:54;;;;;;;10.10;1.80;;;3.90;99.90;;;;;;5077009;28;20047;-62
2022/01/20 01:27:22;;;;;;;11.88;1.67;;;3.90;99.90;;;;;;5095942;28;20585;-61
2022/01/20 01:32:36;;;;;;;11.07;2.08;;;3.70;99.90;;;;;;5078051;28;20120;-61
2022/01/20 01:35:06;;;;;;;9.90;2.65;;;3.70;99.90;;;;;;5077979;28;20052;-61
2022/01/20 01:39:59;;;;;;;8.25;1.38;;;3.80;99.90;;;;;;5059795;28;20048;-62
2022/01/20 01:42:32;;;;;;;12.00;2.20;;;3.80;99.90;;;;;;5078706;28;20120;-62
2022/01/20 01:45:16;;;;;;;10.57;1.83;;;3.80;99.90;;;;;;5043228;28;20116;-62
2022/01/20 01:47:43;;;;;;;12.68;2.00;;;3.90;99.90;;;;;;5043135;28;20071;-62
2022/01/20 01:50:09;;;;;;;13.20;2.90;;;3.90;99.90;;;;;;5077902;28;20067;-62
2022/01/20 01:52:35;;;;;;;10.23;2.00;;;4.10;99.90;;;;;;5078132;28;20041;-62
2022/01/20 01:55:01;;;;;;;12.27;2.13;;;4.20;99.90;;;;;;5078475;28;20040;-63
2022/01/20 01:57:27;;;;;;;14.02;2.45;;;3.90;99.90;;;;;;5059744;28;20541;-63
2022/01/20 01:59:54;;;;;;;10.60;1.88;;;4.00;99.90;;;;;;5045448;28;20033;-64
2022/01/20 02:02:20;;;;;;;14.68;3.10;;;3.90;99.90;;;;;;5081819;28;20128;-64
2022/01/20 02:04:47;;;;;;;17.98;2.47;;;4.00;99.90;;;;;;5063859;28;20055;-65
2022/01/20 02:20:43;;;;;;;15.30;2.53;;;3.20;99.90;;;;;;5081748;28;20082;-64
2022/01/20 02:23:09;;;;;;;13.88;2.40;;;3.10;99.90;;;;;;5062998;28;20068;-64
2022/01/20 02:25:36;;;;;;;18.27;3.03;;;3.20;99.90;;;;;;5081583;28;20040;-64
2022/01/20 02:28:10;;;;;;;17.38;2.72;;;3.20;99.90;;;;;;5062794;28;20099;-64
2022/01/20 02:30:39;;;;;;;19.67;3.90;;;3.20;99.90;;;;;;5080709;28;20049;-64
2022/01/20 02:33:08;;;;;;;18.75;3.20;;;3.20;99.90;;;;;;5081194;28;20049;-63
2022/01/20 02:35:41;;;;;;;30.33;4.18;;;3.30;99.90;;;;;;5080916;28;20453;-64
2022/01/20 02:38:12;;;;;;;;;;;3.40;99.90;;;;;;5081725;28;20041;-64
2022/01/20 02:46:12;;;;;;;22.23;5.97;;;3.60;99.90;;;;;;4999420;28;20053;-64
2022/01/20 02:48:37;;;;;;;26.13;3.70;;;3.60;99.90;;;;;;4998778;28;20081;-64
2022/01/20 02:51:03;;;;;;;27.98;3.67;;;3.60;99.90;;;;;;5020003;28;20041;-64
2022/01/20 02:53:29;;;;;;;20.13;3.53;;;3.70;99.90;;;;;;5080346;28;20044;-64
2022/01/20 02:55:55;;;;;;;35.80;6.18;;;3.70;99.90;;;;;;5080775;28;20049;-64
2022/01/20 02:58:20;;;;;;;24.38;3.60;;;3.80;99.90;;;;;;5080646;28;20543;-63
2022/01/20 03:00:46;;;;;;;21.67;3.85;;;3.70;99.90;;;;;;5062421;28;20051;-64
2022/01/20 03:03:13;;;;;;;15.30;3.17;;;3.70;99.90;;;;;;5063140;28;20040;-63
2022/01/20 03:05:38;;;;;;;20.45;3.40;;;3.60;99.90;;;;;;5080327;28;20082;-64
2022/01/20 03:08:04;;;;;;;20.20;4.40;;;3.70;99.90;;;;;;5063247;28;20037;-63
2022/01/20 03:10:30;;;;;;;20.95;4.35;;;3.60;99.90;;;;;;5079615;28;20707;-64
2022/01/20 03:12:57;;;;;;;27.13;4.95;;;3.60;99.90;;;;;;5095777;28;20103;-65
2022/01/20 03:15:24;;;;;;;23.33;3.55;;;3.60;99.90;;;;;;5100741;28;20044;-64
2022/01/20 03:17:49;;;;;;;20.70;3.85;;;3.50;99.90;;;;;;5100552;28;20113;-65
2022/01/20 03:20:15;;;;;;;22.17;3.80;;;3.40;99.90;;;;;;5100625;28;20036;-64
2022/01/20 03:22:41;;;;;;;13.98;3.33;;;3.30;99.90;;;;;;5082129;28;20048;-63
2022/01/20 03:25:07;;;;;;;17.17;2.30;;;3.40;99.90;;;;;;5101233;28;20123;-64
2022/01/20 03:27:33;;;;;;;17.38;2.22;;;3.40;99.90;;;;;;5078257;28;20064;-65
2022/01/20 03:29:59;;;;;;;17.52;3.03;;;3.40;99.90;;;;;;5080511;28;20104;-64
2022/01/20 03:32:24;;;;;;;14.50;2.28;;;3.40;99.90;;;;;;5080075;28;20083;-64
2022/01/20 03:34:50;;;;;;;17.25;3.17;;;3.40;99.90;;;;;;5079833;28;20079;-64
2022/01/20 03:37:16;;;;;;;11.95;2.53;;;3.50;99.90;;;;;;5062242;28;20079;-63
2022/01/20 03:39:42;;;;;;;20.10;2.85;;;3.60;99.90;;;;;;5062163;28;20036;-64
2022/01/20 03:42:08;;;;;;;16.55;2.50;;;3.60;99.90;;;;;;5062627;28;20048;-63
2022/01/20 03:44:33;;;;;;;14.82;2.50;;;3.60;99.90;;;;;;5079638;28;20044;-63
2022/01/20 03:47:02;;;;;;;12.05;2.10;;;3.50;99.90;;;;;;5080294;28;20095;-63
2022/01/20 03:49:37;;;;;;;12.35;2.00;;;3.50;99.90;;;;;;5079146;28;20055;-63
2022/01/20 03:52:04;;;;;;;15.95;2.53;;;3.50;99.90;;;;;;5061909;28;20040;-63
2022/01/20 03:54:30;;;;;;;12.45;2.03;;;3.50;99.90;;;;;;5062081;28;20520;-63
2022/01/20 03:56:56;;;;;;;14.88;2.85;;;3.40;99.90;;;;;;5079468;28;20052;-63
2022/01/20 03:59:22;;;;;;;14.13;3.00;;;3.50;99.90;;;;;;5080205;28;20037;-63
2022/01/20 04:01:48;;;;;;;15.15;2.25;;;3.40;99.90;;;;;;5044752;28;20138;-63
2022/01/20 04:04:14;;;;;;;14.20;2.45;;;3.40;99.90;;;;;;5079688;28;20055;-63
2022/01/20 04:06:40;;;;;;;11.98;1.83;;;3.40;99.90;;;;;;5079361;28;20040;-63
2022/01/20 04:09:05;;;;;;;11.13;2.28;;;3.40;99.90;;;;;;5079439;28;20044;-64
2022/01/20 04:11:31;;;;;;;10.82;1.85;;;3.40;99.90;;;;;;5061174;28;20083;-63
2022/01/20 04:13:58;;;;;;;14.85;2.20;;;3.30;99.90;;;;;;5079068;28;20048;-63
2022/01/20 04:16:34;;;;;;;9.88;2.53;;;3.30;99.90;;;;;;5079858;28;20068;-63
2022/01/20 04:19:01;;;;;;;10.82;2.03;;;3.30;99.90;;;;;;5078775;28;20083;-63
2022/01/20 04:21:28;;;;;;;12.38;2.13;;;3.40;99.90;;;;;;5078561;28;20112;-63
2022/01/20 04:23:55;;;;;;;9.35;1.70;;;3.40;99.90;;;;;;5060601;28;20040;-62
2022/01/20 04:26:22;;;;;;;12.48;2.13;;;3.40;99.90;;;;;;5079033;28;20101;-62
2022/01/20 04:28:48;;;;;;;13.40;1.90;;;3.50;99.90;;;;;;5079352;28;20032;-63
2022/01/20 04:31:15;;;;;;;18.65;3.58;;;3.50;99.90;;;;;;5051528;28;20074;-63
2022/01/20 04:33:41;;;;;;;28.60;4.25;;;3.40;99.90;;;;;;5079446;28;20044;-63
2022/01/20 04:36:07;;;;;;;19.73;3.85;;;3.40;99.90;;;;;;5077438;28;20074;-62
2022/01/20 04:38:33;;;;;;;13.55;3.00;;;3.30;99.90;;;;;;5079145;28;20383;-62
2022/01/20 04:40:59;;;;;;;19.42;3.22;;;3.30;99.90;;;;;;5077181;28;20055;-62
2022/01/20 04:43:26;;;;;;;13.55;2.92;;;3.20;99.90;;;;;;5078756;28;20067;-62
2022/01/20 04:46:11;;;;;;;19.80;2.60;;;3.20;99.90;;;;;;5061089;28;20052;-62
2022/01/20 04:59:23;;;;;;;10.38;2.20;;;2.80;99.90;;;;;;5079321;28;20044;-62
2022/01/20 05:01:48;;;;;;;6.93;1.35;;;2.50;99.90;;;;;;5078430;28;20096;-62
2022/01/20 05:04:14;;;;;;;4.03;1.00;;;2.20;99.90;;;;;;5078692;28;20036;-60
2022/01/20 05:06:42;;;;;;;4.47;1.00;;;2.30;99.90;;;;;;5078409;28;20433;-62
2022/01/20 05:09:10;;;;;;;9.70;1.10;;;2.40;99.90;;;;;;5078408;28;20052;-62
2022/01/20 05:11:43;;;;;;;7.50;1.63;;;2.40;99.90;;;;;;5078542;28;20090;-62
2022/01/20 05:14:09;;;;;;;9.02;1.40;;;2.40;99.90;;;;;;5076801;28;20087;-62
2022/01/20 05:16:34;;;;;;;8.13;1.40;;;2.30;99.90;;;;;;5077789;28;20055;-62
2022/01/20 05:19:00;;;;;;;10.60;1.50;;;2.30;99.90;;;;;;5076809;28;20044;-62
2022/01/20 05:21:26;;;;;;;10.93;1.67;;;2.30;99.90;;;;;;5077025;28;20052;-63
2022/01/20 05:23:51;;;;;;;13.30;2.20;;;2.30;99.90;;;;;;5078281;28;20048;-62
2022/01/20 05:26:17;;;;;;;8.45;2.05;;;2.40;99.90;;;;;;5078075;28;20074;-62
2022/01/20 05:28:43;;;;;;;12.63;3.65;;;2.40;99.90;;;;;;5060411;28;20051;-62
2022/01/20 05:31:08;;;;;;;21.15;2.92;;;2.50;99.90;;;;;;5077923;28;20148;-62
2022/01/20 05:33:34;;;;;;;16.23;2.53;;;2.50;99.90;;;;;;5080253;28;20493;-62
2022/01/20 05:36:01;;;;;;;14.60;2.80;;;2.60;99.90;;;;;;5082055;28;20048;-63
2022/01/20 05:38:26;;;;;;;15.70;2.88;;;2.60;99.90;;;;;;5064750;28;20037;-62
2022/01/20 05:40:52;;;;;;;16.67;3.22;;;2.70;99.90;;;;;;5047546;28;20049;-62
2022/01/20 05:43:18;;;;;;;12.38;2.90;;;2.70;99.90;;;;;;5064309;28;20049;-62
2022/01/20 05:45:44;;;;;;;21.63;3.25;;;2.70;99.90;;;;;;5064125;28;20482;-62
2022/01/20 05:48:13;;;;;;;18.83;3.50;;;2.80;99.90;;;;;;5082070;28;20115;-62
2022/01/20 05:50:39;;;;;;;21.33;3.15;;;2.90;99.90;;;;;;5063972;28;20063;-62
2022/01/20 05:53:06;;;;;;;16.85;2.90;;;2.90;99.90;;;;;;5081959;28;20371;-62
2022/01/20 05:55:33;;;;;;;14.73;2.63;;;3.00;99.90;;;;;;5064157;28;20048;-63
2022/01/20 05:57:58;;;;;;;13.77;2.55;;;3.10;99.90;;;;;;5081873;28;20090;-62
2022/01/20 06:00:25;;;;;;;16.20;2.65;;;3.10;99.90;;;;;;5081832;28;20037;-61
2022/01/20 06:05:38;;;;;;;12.55;2.60;;;3.30;99.90;;;;;;5081531;28;20074;-61
2022/01/20 06:08:05;;;;;;;14.68;3.05;;;3.10;99.90;;;;;;5082327;28;20040;-62
2022/01/20 06:10:31;;;;;;;15.63;2.40;;;2.90;99.90;;;;;;5081600;28;20044;-62
2022/01/20 06:12:57;;;;;;;14.80;2.50;;;2.90;99.90;;;;;;5079733;28;20048;-62
2022/01/20 06:15:23;;;;;;;13.93;2.72;;;2.90;99.90;;;;;;5101604;28;20085;-62
2022/01/20 06:17:49;;;;;;;15.93;3.42;;;2.90;99.90;;;;;;5066997;28;20048;-62
2022/01/20 06:20:15;;;;;;;17.95;3.67;;;2.80;99.90;;;;;;5083869;28;20099;-62
2022/01/20 06:22:41;;;;;;;16.48;3.17;;;2.80;99.90;;;;;;5101760;28;20051;-62
2022/01/20 06:25:07;;;;;;;14.98;3.30;;;2.80;99.90;;;;;;5102301;28;20040;-63
2022/01/20 06:27:34;;;;;;;12.82;3.25;;;2.80;99.90;;;;;;5078972;28;20043;-62
2022/01/20 06:30:00;;;;;;;17.67;3.17;;;2.80;99.90;;;;;;5081351;28;20128;-62
2022/01/20 06:32:27;;;;;;;15.68;2.92;;;2.90;99.90;;;;;;5081124;28;20135;-62
2022/01/20 06:34:52;;;;;;;9.00;2.42;;;2.80;99.90;;;;;;5062934;28;20048;-62
2022/01/20 06:37:18;;;;;;;14.18;2.00;;;2.60;99.90;;;;;;5030424;28;20036;-62
2022/01/20 06:39:44;;;;;;;9.90;2.80;;;2.50;99.90;;;;;;5079804;28;20047;-62
2022/01/20 06:42:10;;;;;;;12.80;2.28;;;2.40;99.90;;;;;;5060339;28;20048;-62
2022/01/20 06:44:35;;;;;;;15.40;3.22;;;2.30;99.90;;;;;;5076882;28;20078;-62
2022/01/20 06:47:01;;;;;;;10.57;2.20;;;2.30;99.90;;;;;;5077793;28;20040;-62
2022/01/20 06:49:27;;;;;;;12.60;1.65;;;2.20;99.90;;;;;;5077148;28;20095;-62
2022/01/20 06:51:53;;;;;;;8.00;1.55;;;2.20;99.90;;;;;;5058992;28;20052;-62
2022/01/20 06:54:18;;;;;;;14.10;1.92;;;2.20;99.90;;;;;;5059930;28;20080;-63
2022/01/20 06:56:44;;;;;;;12.63;2.97;;;2.30;99.90;;;;;;5042783;28;20052;-61
2022/01/20 06:59:12;;;;;;;14.65;2.70;;;2.40;99.90;;;;;;5059906;28;20072;-62
2022/01/20 07:01:39;;;;;;;12.20;2.15;;;2.50;99.90;;;;;;5077343;28;20108;-63
2022/01/20 07:04:06;;;;;;;17.98;2.60;;;2.60;99.90;;;;;;5077385;28;20044;-63
2022/01/20 07:06:31;;;;;;;13.68;3.45;;;2.60;99.90;;;;;;5077568;28;20557;-62
2022/01/20 07:08:58;;;;;;;13.23;2.30;;;2.70;99.90;;;;;;5059410;28;20130;-63
2022/01/20 07:11:24;;;;;;;14.48;2.90;;;2.70;99.90;;;;;;5078424;28;20045;-61
2022/01/20 07:13:49;;;;;;;11.27;2.17;;;3.10;99.90;;;;;;5097536;28;20143;-62
2022/01/20 07:16:15;;;;;;;10.85;2.47;;;2.50;99.90;;;;;;5079722;28;20066;-63
2022/01/20 07:18:41;;;;;;;13.80;2.80;;;2.50;99.90;;;;;;5062658;28;20489;-63
2022/01/20 07:21:06;;;;;;;15.60;3.53;;;2.40;99.90;;;;;;5079397;28;20528;-63
2022/01/20 07:23:32;;;;;;;18.45;4.28;;;2.40;99.90;;;;;;5062489;28;20127;-62
2022/01/20 07:25:58;;;;;;;20.85;3.47;;;2.30;99.90;;;;;;5062479;28;20048;-62
2022/01/20 07:28:24;;;;;;;16.33;2.42;;;2.30;99.90;;;;;;5085732;28;20040;-62
2022/01/20 07:30:49;;;;;;;13.98;2.70;;;2.30;99.90;;;;;;5060894;28;20059;-62
2022/01/20 07:33:15;;;;;;;12.13;2.38;;;2.30;99.90;;;;;;5077659;28;20044;-63
2022/01/20 07:35:41;;;;;;;18.67;3.40;;;2.40;99.90;;;;;;5075483;28;20048;-62
2022/01/20 07:38:07;;;;;;;17.05;2.40;;;2.30;99.90;;;;;;5076342;28;20096;-63
2022/01/20 07:40:34;;;;;;;12.88;2.75;;;2.40;99.90;;;;;;5074771;28;20052;-62
2022/01/20 07:43:00;;;;;;;12.50;2.22;;;2.50;99.90;;;;;;5076002;28;20105;-63
2022/01/20 07:45:26;;;;;;;13.85;2.38;;;2.50;99.90;;;;;;5076895;28;20049;-63
2022/01/20 07:47:52;;;;;;;17.40;2.45;;;2.50;99.90;;;;;;5076584;28;20417;-63
2022/01/20 07:50:17;;;;;;;12.00;2.20;;;2.60;99.90;;;;;;5092658;28;20052;-63
2022/01/20 07:52:43;;;;;;;12.80;2.47;;;2.70;99.90;;;;;;5058296;28;20516;-62
2022/01/20 07:55:09;;;;;;;12.48;2.17;;;2.80;99.90;;;;;;5075981;28;20052;-63
2022/01/20 07:57:35;;;;;;;10.45;1.70;;;2.80;99.90;;;;;;5076251;28;20049;-62
2022/01/20 08:00:02;;;;;;;12.70;2.03;;;2.80;99.90;;;;;;5076345;28;20070;-62
2022/01/20 08:02:28;;;;;;;12.00;2.80;;;2.80;99.90;;;;;;5076521;28;20045;-63
2022/01/20 08:04:54;;;;;;;9.57;2.08;;;2.80;99.90;;;;;;5074781;28;20071;-63
2022/01/20 08:07:20;;;;;;;13.52;2.08;;;2.80;99.90;;;;;;5076701;28;20551;-62
2022/01/20 08:09:46;;;;;;;15.80;2.58;;;2.80;99.90;;;;;;5076256;28;20106;-63
2022/01/20 08:12:12;;;;;;;16.33;2.50;;;2.80;99.90;;;;;;5071192;28;20080;-63
2022/01/20 08:14:39;;;;;;;27.65;4.65;;;2.90;99.90;;;;;;5075531;28;20600;-63
2022/01/20 08:17:05;;;;;;;12.68;2.72;;;2.90;99.90;;;;;;5074277;28;20084;-63
2022/01/20 08:19:31;;;;;;;13.23;3.13;;;2.90;99.90;;;;;;5065647;28;20403;-62
2022/01/20 08:21:56;;;;;;;20.05;3.25;;;3.00;99.90;;;;;;5091718;28;20139;-63
2022/01/20 08:24:22;;;;;;;11.23;2.30;;;3.00;99.90;;;;;;5076183;28;20112;-63
2022/01/20 08:26:48;;;;;;;12.75;2.53;;;3.00;99.90;;;;;;5075871;28;20041;-62
2022/01/20 08:29:14;;;;;;;16.23;2.92;;;3.10;99.90;;;;;;5076426;28;20436;-63
2022/01/20 08:31:39;;;;;;;16.70;2.90;;;3.10;99.90;;;;;;5087690;28;20066;-62
2022/01/20 08:34:05;;;;;;;13.75;1.95;;;3.10;99.90;;;;;;5096365;28;20067;-62
2022/01/20 08:36:31;;;;;;;13.95;3.17;;;3.20;99.90;;;;;;5060964;28;20054;-62
2022/01/20 08:38:56;;;;;;;16.10;3.28;;;3.40;99.90;;;;;;5096022;28;20101;-63
2022/01/20 08:41:22;;;;;;;11.70;2.35;;;3.10;99.90;;;;;;5095565;28;20121;-64
2022/01/20 08:43:48;;;;;;;13.48;2.65;;;2.60;99.90;;;;;;5077498;28;20043;-64
2022/01/20 08:46:19;;;;;;;10.50;2.05;;;2.40;99.90;;;;;;5096051;28;20036;-62
2022/01/20 08:48:44;;;;;;;10.75;1.95;;;2.30;99.90;;;;;;5095593;28;20050;-61
2022/01/20 08:51:10;;;;;;;15.85;2.08;;;2.20;99.90;;;;;;5061151;28;20415;-61
2022/01/20 08:53:36;;;;;;;10.45;1.77;;;2.00;99.90;;;;;;5077124;28;20048;-61
2022/01/20 08:56:03;;;;;;;7.75;1.65;;;2.00;99.90;;;;;;5095676;28;20565;-61
2022/01/20 08:58:29;;;;;;;6.93;1.33;;;1.90;99.90;;;;;;5077294;28;20131;-61
2022/01/20 09:00:54;;;;;;;6.20;1.15;;;1.90;99.90;;;;;;5095250;28;20075;-60
2022/01/20 09:03:23;;;;;;;13.15;2.38;;;2.00;99.90;;;;;;5077389;28;20192;-60
2022/01/20 09:05:49;;;;;;;14.32;2.25;;;2.20;99.90;;;;;;5076878;28;20051;-59
2022/01/20 09:08:15;;;;;;;12.48;2.25;;;2.20;99.90;;;;;;5095463;28;20650;-59
2022/01/20 09:10:45;;;;;;;13.45;2.45;;;2.20;99.90;;;;;;5095336;28;20073;-59
2022/01/20 09:15:55;;;;;;;17.95;2.33;;;2.00;99.90;;;;;;5115737;28;20051;-60
2022/01/20 09:18:22;;;;;;;18.45;3.58;;;2.00;99.90;;;;;;5108833;28;20070;-61
2022/01/20 09:20:48;;;;;;;22.10;3.50;;;2.00;99.90;;;;;;5089390;28;20055;-60
2022/01/20 09:23:15;;;;;;;13.68;2.45;;;2.00;99.90;;;;;;5077141;28;20048;-59
2022/01/20 09:25:42;;;;;;;16.42;2.33;;;2.00;99.90;;;;;;5075343;28;20056;-60
2022/01/20 09:28:08;;;;;;;16.05;2.03;;;2.10;99.90;;;;;;5065933;28;20087;-60
2022/01/20 09:30:35;;;;;;;15.73;2.58;;;2.10;99.90;;;;;;5077052;28;20063;-59
2022/01/20 09:33:12;;;;;;;20.88;4.38;;;2.10;99.90;;;;;;5077195;28;20098;-60
2022/01/20 09:35:40;;;;;;;17.58;2.88;;;2.40;99.90;;;;;;5076683;28;20052;-59
2022/01/20 09:38:09;;;;;;;14.82;2.17;;;2.40;99.90;;;;;;5077587;28;20630;-60
2022/01/20 09:40:36;;;;;;;14.70;2.55;;;2.60;99.90;;;;;;5075946;28;20040;-60
2022/01/20 09:43:04;;;;;;;14.90;2.95;;;2.80;99.90;;;;;;5056516;28;20142;-60
2022/01/20 09:45:30;;;;;;;23.58;3.65;;;3.10;99.90;;;;;;5040154;28;20116;-60
2022/01/20 09:47:57;;;;;;;12.90;2.20;;;3.20;99.90;;;;;;5074666;28;20217;-61
2022/01/20 09:50:24;;;;;;;19.75;3.00;;;3.20;99.90;;;;;;5075317;28;20137;-60
2022/01/20 09:52:50;;;;;;;12.90;2.40;;;3.10;99.90;;;;;;5040028;28;20134;-60
2022/01/20 09:55:18;;;;;;;13.80;2.70;;;3.10;99.90;;;;;;5057289;28;20060;-60
2022/01/20 09:57:44;;;;;;;13.30;1.98;;;3.10;99.90;;;;;;5056815;28;20048;-59
2022/01/20 10:00:14;;;;;;;14.50;1.95;;;3.20;99.90;;;;;;5056692;28;20132;-59
2022/01/20 10:03:00;;;;;;;7.97;2.28;;;3.20;99.90;;;;;;5074836;28;20057;-60
2022/01/20 10:05:28;;;;;;;11.82;1.73;;;3.10;99.90;;;;;;5056454;28;20041;-60
2022/01/20 10:08:00;;;;;;;12.27;1.77;;;2.90;99.90;;;;;;5075516;28;20514;-60
2022/01/20 10:10:37;;;;;;;7.57;1.20;;;2.80;99.90;;;;;;5056582;28;20048;-60
2022/01/20 10:13:05;;;;;;;11.50;1.58;;;2.60;99.90;;;;;;5088959;28;20074;-61
2022/01/20 10:15:31;;;;;;;11.48;1.95;;;2.60;99.90;;;;;;5080899;28;20078;-60
2022/01/20 10:18:14;;;;;;;13.10;1.88;;;2.60;99.90;;;;;;5076523;28;20048;-60
2022/01/20 10:21:05;;;;;;;13.50;1.73;;;2.60;99.90;;;;;;5085634;28;20056;-60
2022/01/20 10:23:41;;;;;;;11.82;1.92;;;2.60;99.90;;;;;;5075051;28;20063;-60
2022/01/20 10:26:09;;;;;;;16.00;2.50;;;2.80;99.90;;;;;;5078206;28;20058;-60
2022/01/20 10:28:53;;;;;;;12.32;2.30;;;3.00;99.90;;;;;;5091080;28;20043;-59
2022/01/20 10:31:42;;;;;;;11.30;2.28;;;3.10;99.90;;;;;;5098241;28;20063;-60
2022/01/20 10:34:33;;;;;;;13.00;2.70;;;3.30;99.90;;;;;;5082230;28;20055;-60
2022/01/20 10:37:16;;;;;;;10.23;2.42;;;3.40;99.90;;;;;;5098674;28;20040;-60
2022/01/20 10:39:46;;;;;;;;;;;3.40;99.90;;;;;;5080191;28;20052;-60
2022/01/20 10:42:20;;;;;;;14.10;1.70;;;3.40;99.90;;;;;;5099001;28;20683;-59
2022/01/20 10:44:54;;;;;;;21.15;5.70;;;3.30;99.90;;;;;;5098183;28;20097;-60
2022/01/20 10:47:25;;;;;;;20.20;2.42;;;3.40;99.90;;;;;;5096288;28;20050;-60
2022/01/20 10:49:52;;;;;;;15.70;4.67;;;3.50;99.90;;;;;;5079759;28;20047;-61
2022/01/20 10:52:21;;;;;;;14.30;2.30;;;3.70;99.90;;;;;;5066462;28;20045;-60
2022/01/20 10:54:53;;;;;;;16.13;2.17;;;3.90;99.90;;;;;;5080660;28;20052;-59
2022/01/20 10:57:30;;;;;;;15.48;3.10;;;4.10;99.90;;;;;;5079493;28;20055;-58
2022/01/20 10:59:58;;;;;;;18.67;2.47;;;4.10;99.90;;;;;;5063973;28;20679;-60
2022/01/20 11:02:29;;;;;;;10.77;2.15;;;4.00;99.90;;;;;;5079764;28;20058;-60
2022/01/20 11:04:59;;;;;;;8.23;1.33;;;3.50;99.90;;;;;;5097340;28;20051;-60
2022/01/20 11:07:26;;;;;;;13.50;1.77;;;3.20;99.90;;;;;;5098295;28;20852;-60
2022/01/20 11:10:04;;;;;;;8.50;1.60;;;3.10;99.90;;;;;;5097578;28;20040;-59
2022/01/20 11:12:31;;;;;;;10.82;2.17;;;3.00;99.90;;;;;;5079668;28;20531;-59
2022/01/20 11:15:00;;;;;;;9.90;1.80;;;2.90;99.90;;;;;;5097351;28;20040;-59
2022/01/20 11:17:29;;;;;;;7.50;1.38;;;2.90;99.90;;;;;;5099924;28;20557;-59
2022/01/20 11:20:22;;;;;;;11.23;1.52;;;3.10;99.90;;;;;;5100623;28;20047;-59
2022/01/20 11:22:56;;;;;;;9.65;1.75;;;3.40;99.90;;;;;;5082307;28;20050;-59
2022/01/20 11:25:25;;;;;;;14.60;3.05;;;3.40;99.90;;;;;;5082579;28;20074;-59
2022/01/20 11:28:04;;;;;;;13.85;2.92;;;3.40;99.90;;;;;;5082059;28;20054;-60
2022/01/20 11:30:32;;;;;;;17.08;2.92;;;2.80;99.90;;;;;;5100346;28;20048;-60
2022/01/20 11:33:04;;;;;;;14.13;2.63;;;2.30;99.90;;;;;;5085734;28;20113;-60
2022/01/20 11:35:51;;;;;;;13.77;2.20;;;2.00;99.90;;;;;;5079755;28;20072;-61
2022/01/20 11:38:19;;;;;;;10.63;1.95;;;2.10;99.90;;;;;;5061939;28;20048;-61
2022/01/20 11:41:13;;;;;;;8.48;1.23;;;2.00;99.90;;;;;;5061917;28;20071;-61
2022/01/20 11:43:48;;;;;;;9.13;1.10;;;2.20;99.90;;;;;;5078528;28;20056;-61
2022/01/20 11:46:20;;;;;;;10.88;1.40;;;2.40;99.90;;;;;;5063069;28;20037;-61
2022/01/20 11:48:54;;;;;;;11.60;2.78;;;2.60;99.90;;;;;;5079602;28;20055;-61
2022/01/20 11:51:21;;;;;;;11.48;1.92;;;2.80;99.90;;;;;;5061660;28;20074;-61
2022/01/20 11:54:01;;;;;;;12.63;2.83;;;2.90;99.90;;;;;;5061613;28;20557;-61
2022/01/20 11:56:34;;;;;;;18.48;2.03;;;3.10;99.90;;;;;;5079849;28;20044;-61
2022/01/20 11:59:00;;;;;;;18.50;2.88;;;3.30;99.90;;;;;;5080285;28;20044;-61
2022/01/20 12:01:27;;;;;;;14.00;2.13;;;3.60;99.90;;;;;;5061747;28;20804;-61
2022/01/20 12:03:54;;;;;;;16.40;2.38;;;4.30;99.90;;;;;;5062004;28;20444;-61
2022/01/20 12:06:24;;;;;;;14.13;2.88;;;3.80;99.90;;;;;;5079420;28;20040;-59
2022/01/20 12:08:59;;;;;;;19.95;3.75;;;3.80;99.90;;;;;;5079335;28;20082;-61
2022/01/20 12:11:45;;;;;;;21.48;5.50;;;3.90;99.90;;;;;;5079972;28;20463;-61
2022/01/20 12:14:13;;;;;;;14.50;2.50;;;3.80;99.90;;;;;;5061147;28;20078;-60
2022/01/20 12:16:40;;;;;;;20.27;2.78;;;3.70;99.90;;;;;;5061937;28;20036;-61
2022/01/20 12:19:09;;;;;;;19.67;2.47;;;3.60;99.90;;;;;;5078955;28;20136;-60
2022/01/20 12:21:37;;;;;;;12.25;2.17;;;3.80;99.90;;;;;;5079316;28;20093;-60
2022/01/20 12:24:04;;;;;;;15.98;3.72;;;4.70;99.90;;;;;;5061159;28;20076;-60
2022/01/20 12:26:36;;;;;;;17.25;2.55;;;4.10;99.90;;;;;;5079098;28;20037;-61
2022/01/20 12:29:09;;;;;;;15.30;3.42;;;4.00;99.90;;;;;;5061793;28;20048;-61
2022/01/20 12:31:47;;;;;;;22.30;3.10;;;3.90;99.90;;;;;;5060742;28;20067;-61
2022/01/20 12:34:13;;;;;;;13.07;2.67;;;3.80;99.90;;;;;;5079167;28;20052;-60
2022/01/20 12:36:39;;;;;;;22.75;2.92;;;3.70;99.90;;;;;;5060863;28;20132;-60
2022/01/20 12:39:06;;;;;;;18.92;3.10;;;3.70;99.90;;;;;;5060590;28;20063;-61
2022/01/20 12:41:32;;;;;;;17.13;2.88;;;3.80;99.90;;;;;;5079418;28;20075;-61
2022/01/20 12:44:07;;;;;;;16.48;3.55;;;3.90;99.90;;;;;;5078115;28;20048;-60
2022/01/20 12:46:36;;;;;;;16.60;2.88;;;3.90;99.90;;;;;;5079240;28;20040;-60
2022/01/20 12:49:09;;;;;;;17.42;2.47;;;3.90;99.90;;;;;;5078351;28;20083;-61
2022/01/20 12:51:48;;;;;;;16.25;2.90;;;3.90;99.90;;;;;;5078767;28;20044;-61
2022/01/20 12:54:26;;;;;;;14.77;2.53;;;3.90;99.90;;;;;;5078680;28;20052;-60
2022/01/20 12:56:54;;;;;;;14.93;2.90;;;4.00;99.90;;;;;;5078252;28;20045;-60
2022/01/20 12:59:25;;;;;;;15.00;2.13;;;4.10;99.90;;;;;;5044321;28;20047;-61
2022/01/20 13:01:52;;;;;;;16.30;3.13;;;4.20;99.90;;;;;;5078365;28;20087;-60
2022/01/20 13:04:21;;;;;;;18.88;3.13;;;4.10;99.90;;;;;;5060434;28;20044;-61
2022/01/20 13:06:55;;;;;;;14.57;3.53;;;3.80;99.90;;;;;;5074129;28;20036;-61
2022/01/20 13:09:23;;;;;;;13.38;2.45;;;3.60;99.90;;;;;;5051305;28;20055;-61
2022/01/20 13:11:59;;;;;;;17.13;2.35;;;3.60;99.90;;;;;;5071768;28;20051;-61
2022/01/20 13:14:46;;;;;;;17.85;2.97;;;3.50;99.90;;;;;;5059746;28;20104;-60
2022/01/20 13:17:23;;;;;;;11.15;1.92;;;3.50;99.90;;;;;;5057834;28;20047;-59
2022/01/20 13:19:51;;;;;;;16.17;3.05;;;3.60;99.90;;;;;;5068041;28;20051;-59
2022/01/20 13:22:19;;;;;;;10.23;2.13;;;3.70;99.90;;;;;;5049151;28;20076;-60
2022/01/20 13:24:46;;;;;;;18.35;2.88;;;3.70;99.90;;;;;;5072285;28;20054;-60
2022/01/20 13:27:12;;;;;;;12.25;1.67;;;3.80;99.90;;;;;;5065941;28;20045;-60
2022/01/20 13:29:44;;;;;;;14.75;2.15;;;3.90;99.90;;;;;;5066439;28;20475;-60
2022/01/20 13:32:10;;;;;;;10.75;2.17;;;3.60;99.90;;;;;;5074336;28;20095;-60
2022/01/20 13:34:36;;;;;;;16.30;2.58;;;3.20;99.90;;;;;;5078228;28;20056;-61
2022/01/20 13:37:02;;;;;;;9.30;2.45;;;3.10;99.90;;;;;;5060525;28;20426;-61
2022/01/20 13:39:32;;;;;;;15.15;2.08;;;3.00;99.90;;;;;;5060176;28;20403;-60
2022/01/20 13:45:02;;;;;;;9.13;1.65;;;3.10;99.90;;;;;;5078716;28;20068;-59
2022/01/20 13:45:13;;;;;;;15.30;2.67;;;3.20;99.90;;;;;;5069949;28;20102;-61
2022/01/20 13:47:47;;;;;;;11.98;3.00;;;3.30;99.90;;;;;;5078246;28;20102;-62
2022/01/20 13:50:44;;;;;;;13.00;2.33;;;3.40;99.90;;;;;;5078455;28;20036;-61
2022/01/20 13:53:19;;;;;;;14.95;2.42;;;3.40;99.90;;;;;;5069209;28;20846;-61
2022/01/20 13:55:47;;;;;;;17.40;3.50;;;3.40;99.90;;;;;;5081444;28;20040;-61
2022/01/20 13:58:28;;;;;;;12.13;2.28;;;3.30;99.90;;;;;;5081966;28;20048;-61
2022/01/20 14:00:55;;;;;;;10.80;1.88;;;2.80;99.90;;;;;;5063542;28;20048;-61
2022/01/20 14:03:22;;;;;;;13.30;1.73;;;2.70;99.90;;;;;;5048287;28;20047;-59
2022/01/20 14:05:49;;;;;;;11.80;2.30;;;2.60;99.90;;;;;;5081734;28;20120;-60
2022/01/20 14:08:15;;;;;;;13.70;2.20;;;2.60;99.90;;;;;;5081652;28;20074;-61